createdAt,value
2018-05-29T00:01:15.270Z,18.27
2018-05-29T00:05:17.790Z,17.77
2018-05-29T00:09:21.093Z,20.00
2018-05-29T00:13:24.391Z,18.27
2018-05-29T00:17:26.939Z,20.30
2018-05-29T00:21:29.485Z,18.70
2018-05-29T00:25:32.023Z,18.17
2018-05-29T00:29:34.558Z,18.73
2018-05-29T00:33:37.118Z,20.00
2018-05-29T00:37:40.440Z,19.67
2018-05-29T00:41:42.996Z,20.63
2018-05-29T00:45:45.524Z,20.67
2018-05-29T00:49:48.064Z,19.77
2018-05-29T00:53:50.663Z,19.70
2018-05-29T00:57:53.959Z,19.17
2018-05-29T01:01:57.388Z,19.23
2018-05-29T01:06:11.337Z,18.93
2018-05-29T01:14:24.726Z,20.00
2018-05-29T01:18:27.263Z,19.80
2018-05-29T01:22:29.807Z,19.10
2018-05-29T01:26:32.367Z,19.57
2018-05-29T01:30:34.892Z,20.80
2018-05-29T01:34:37.435Z,22.37
2018-05-29T01:38:39.987Z,23.10
2018-05-29T01:42:42.543Z,23.63
2018-05-29T01:46:45.089Z,24.57
2018-05-29T01:50:48.375Z,24.83
2018-05-29T01:54:51.681Z,22.93
2018-05-29T01:58:54.988Z,23.60
2018-05-29T02:02:57.530Z,22.37
2018-05-29T02:07:00.068Z,23.03
2018-05-29T02:11:02.591Z,22.63
2018-05-29T02:15:05.137Z,22.20
2018-05-29T02:19:07.690Z,22.23
2018-05-29T02:23:10.218Z,22.90
2018-05-29T02:27:12.756Z,22.03
2018-05-29T02:31:15.275Z,23.70
2018-05-29T02:35:17.828Z,24.07
2018-05-29T02:39:20.359Z,23.80
2018-05-29T02:43:23.667Z,22.87
2018-05-29T02:47:26.521Z,21.93
2018-05-29T02:51:29.812Z,21.83
2018-05-29T02:55:32.346Z,22.70
2018-05-29T02:59:34.894Z,22.53
2018-05-29T03:03:37.463Z,22.73
2018-05-29T03:07:40.004Z,23.63
2018-05-29T03:11:42.524Z,23.40
2018-05-29T03:15:45.064Z,22.37
2018-05-29T03:19:47.616Z,23.03
2018-05-29T03:23:50.923Z,23.47
2018-05-29T03:27:54.225Z,22.97
2018-05-29T03:31:56.763Z,23.47
2018-05-29T03:35:59.296Z,23.50
2018-05-29T03:40:02.606Z,24.03
2018-05-29T03:44:05.912Z,23.37
2018-05-29T03:48:08.455Z,25.00
2018-05-29T03:52:10.994Z,23.03
2018-05-29T03:56:13.512Z,24.40
2018-05-29T04:00:16.055Z,23.17
2018-05-29T04:04:18.593Z,24.23
2018-05-29T04:08:21.135Z,25.70
2018-05-29T04:12:25.268Z,25.30
2018-05-29T04:16:27.795Z,23.37
2018-05-29T04:20:30.339Z,24.03
2018-05-29T04:24:32.896Z,22.43
2018-05-29T04:28:36.201Z,23.53
2018-05-29T04:32:39.504Z,22.90
2018-05-29T04:36:42.787Z,23.53
2018-05-29T04:40:45.355Z,23.13
2018-05-29T04:44:47.900Z,22.20
2018-05-29T04:48:51.208Z,22.60
2018-05-29T04:52:53.752Z,21.67
2018-05-29T04:56:57.056Z,21.87
2018-05-29T05:01:00.366Z,21.53
2018-05-29T05:05:03.676Z,22.47
2018-05-29T05:09:06.219Z,21.67
2018-05-29T05:13:08.758Z,21.50
2018-05-29T05:17:11.274Z,21.40
2018-05-29T05:21:13.814Z,21.73
2018-05-29T05:25:17.117Z,21.63
2018-05-29T05:29:19.655Z,20.57
2018-05-29T05:33:22.204Z,22.73
2018-05-29T05:37:24.723Z,21.20
2018-05-29T05:41:27.259Z,19.30
2018-05-29T05:45:29.808Z,19.87
2018-05-29T05:49:32.411Z,19.17
2018-05-29T05:53:35.895Z,19.17
2018-05-29T05:57:38.473Z,19.63
2018-05-29T06:01:41.027Z,19.33
2018-05-29T06:05:43.599Z,19.50
2018-05-29T06:09:46.135Z,20.27
2018-05-29T06:13:48.682Z,18.03
2018-05-29T06:17:51.223Z,19.63
2018-05-29T06:21:53.752Z,22.63
2018-05-29T06:25:56.308Z,18.60
2018-05-29T06:29:59.616Z,18.50
2018-05-29T06:34:02.927Z,18.97
2018-05-29T06:38:05.474Z,18.80
2018-05-29T06:42:07.997Z,18.87
2018-05-29T06:46:10.548Z,19.37
2018-05-29T06:50:13.092Z,19.10
2018-05-29T06:54:15.636Z,17.93
2018-05-29T06:58:18.948Z,17.40
2018-05-29T07:02:21.470Z,19.40
2018-05-29T07:06:24.036Z,17.60
2018-05-29T07:10:26.588Z,17.63
2018-05-29T07:14:29.930Z,17.67
2018-05-29T07:18:32.461Z,16.97
2018-05-29T07:22:34.987Z,17.60
2018-05-29T07:26:37.529Z,20.77
2018-05-29T07:30:41.328Z,17.33
2018-05-29T07:34:43.889Z,17.97
2018-05-29T07:38:46.431Z,21.30
2018-05-29T07:42:49.720Z,16.07
2018-05-29T07:46:52.260Z,17.10
2018-05-29T07:50:54.799Z,15.90
2018-05-29T07:54:58.112Z,17.80
2018-05-29T07:59:01.422Z,16.20
2018-05-29T08:03:03.958Z,17.03
2018-05-29T08:07:06.504Z,18.03
2018-05-29T08:11:09.052Z,17.50
2018-05-29T08:15:11.590Z,17.07
2018-05-29T08:19:14.917Z,16.57
2018-05-29T08:23:17.446Z,14.90
2018-05-29T08:27:20.754Z,15.00
2018-05-29T08:31:24.083Z,15.87
2018-05-29T08:35:26.624Z,13.87
2018-05-29T08:39:29.973Z,14.80
2018-05-29T08:43:32.531Z,15.77
2018-05-29T08:47:35.824Z,13.70
2018-05-29T08:51:39.184Z,11.87
2018-05-29T08:55:41.725Z,12.30
2018-05-29T08:59:45.033Z,12.83
2018-05-29T09:03:47.575Z,19.93
2018-05-29T09:07:50.118Z,12.10
2018-05-29T09:11:52.723Z,15.27
2018-05-29T09:15:55.235Z,12.90
2018-05-29T09:19:57.823Z,14.93
2018-05-29T09:24:00.356Z,10.47
2018-05-29T09:28:02.888Z,10.27
2018-05-29T09:32:05.428Z,10.30
2018-05-29T09:40:15.484Z,11.73
2018-05-29T09:44:18.787Z,9.27
2018-05-29T09:48:22.125Z,8.40
2018-05-29T09:52:25.406Z,12.98
2018-05-29T09:56:27.953Z,14.77
2018-05-29T10:00:36.210Z,11.70
2018-05-29T10:04:38.747Z,12.00
2018-05-29T10:08:41.274Z,13.27
2018-05-29T10:12:43.827Z,10.27
2018-05-29T10:16:47.794Z,9.27
2018-05-29T10:20:50.356Z,13.82
2018-05-29T10:24:53.655Z,9.55
2018-05-29T10:28:56.939Z,9.23
2018-05-29T10:33:00.640Z,12.60
2018-05-29T10:37:03.986Z,20.77
2018-05-29T10:41:06.686Z,10.75
2018-05-29T10:45:09.223Z,10.27
2018-05-29T10:49:11.789Z,9.68
2018-05-29T10:53:14.307Z,12.65
2018-05-29T10:57:17.615Z,9.02
2018-05-29T11:01:20.922Z,12.80
2018-05-29T11:05:24.220Z,9.75
2018-05-29T11:09:27.518Z,8.63
2018-05-29T11:13:30.036Z,12.07
2018-05-29T11:17:32.598Z,10.13
2018-05-29T11:21:35.137Z,7.15
2018-05-29T11:25:37.706Z,11.52
2018-05-29T11:29:40.248Z,9.00
2018-05-29T11:33:43.535Z,7.62
2018-05-29T11:37:46.110Z,7.50
2018-05-29T11:41:48.648Z,6.37
2018-05-29T11:45:51.204Z,7.35
2018-05-29T11:49:54.512Z,11.10
2018-05-29T11:53:57.795Z,10.52
2018-05-29T11:58:00.436Z,9.80
2018-05-29T12:02:02.971Z,13.32
2018-05-29T12:06:05.515Z,6.85
2018-05-29T12:10:08.047Z,7.03
2018-05-29T12:14:11.347Z,6.55
2018-05-29T12:18:13.888Z,6.82
2018-05-29T12:22:16.468Z,9.55
2018-05-29T12:26:18.977Z,7.95
2018-05-29T12:30:21.507Z,8.18
2018-05-29T12:34:24.816Z,8.00
2018-05-29T12:38:28.098Z,6.60
2018-05-29T12:42:30.631Z,8.75
2018-05-29T12:46:33.167Z,9.70
2018-05-29T12:50:36.462Z,9.07
2018-05-29T12:54:38.975Z,6.53
2018-05-29T12:58:41.504Z,8.60
2018-05-29T13:02:44.053Z,7.05
2018-05-29T13:06:46.603Z,7.65
2018-05-29T13:10:49.933Z,11.48
2018-05-29T13:14:52.467Z,10.10
2018-05-29T14:36:27.122Z,12.88
2018-05-29T14:40:29.659Z,9.50
2018-05-29T14:44:32.177Z,9.68
2018-05-29T14:48:34.715Z,8.98
2018-05-29T14:52:37.256Z,7.53
2018-05-29T14:56:39.791Z,10.60
2018-05-29T15:00:42.326Z,19.30
2018-05-29T15:04:44.879Z,6.55
2018-05-29T15:08:47.411Z,9.75
2018-05-29T15:12:50.720Z,6.50
2018-05-29T15:16:54.020Z,10.57
2018-05-29T15:20:57.325Z,7.43
2018-05-29T15:25:00.639Z,11.95
2018-05-29T15:29:03.938Z,8.27
2018-05-29T15:33:06.480Z,11.25
2018-05-29T15:37:09.023Z,8.38
2018-05-29T15:41:11.559Z,11.85
2018-05-29T15:45:14.120Z,6.45
2018-05-29T15:49:16.655Z,6.53
2018-05-29T15:53:19.953Z,7.25
2018-05-29T15:57:22.504Z,10.18
2018-05-29T16:01:25.043Z,8.02
2018-05-29T16:05:27.582Z,8.02
2018-05-29T16:09:30.110Z,7.90
2018-05-29T16:13:35.069Z,10.40
2018-05-29T16:17:37.614Z,9.07
2018-05-29T16:21:40.165Z,11.38
2018-05-29T16:25:42.743Z,12.43
2018-05-29T16:29:45.492Z,8.95
2018-05-29T16:33:48.033Z,10.13
2018-05-29T16:37:50.574Z,8.55
2018-05-29T16:41:53.117Z,14.02
2018-05-29T16:45:56.446Z,14.40
2018-05-29T16:49:59.731Z,11.23
2018-05-29T16:54:03.051Z,8.98
2018-05-29T16:58:05.609Z,9.13
2018-05-29T17:02:08.153Z,15.05
2018-05-29T17:06:11.451Z,8.70
2018-05-29T17:10:13.968Z,10.73
2018-05-29T17:14:16.508Z,11.25
2018-05-29T17:18:19.048Z,11.05
2018-05-29T17:22:24.220Z,9.60
2018-05-29T17:26:27.572Z,10.63
2018-05-29T17:30:30.100Z,12.25
2018-05-29T17:34:33.415Z,8.80
2018-05-29T17:38:36.717Z,9.52
2018-05-29T17:42:40.015Z,9.60
2018-05-29T17:46:43.320Z,11.88
2018-05-29T17:50:46.603Z,8.93
2018-05-29T17:54:49.139Z,10.18
2018-05-29T17:58:51.684Z,10.27
2018-05-29T18:02:54.235Z,8.55
2018-05-29T18:06:56.772Z,9.80
2018-05-29T18:10:59.290Z,9.80
2018-05-29T18:15:01.845Z,10.05
2018-05-29T18:19:04.475Z,12.18
2018-05-29T18:23:07.038Z,12.55
2018-05-29T18:27:09.588Z,12.03
2018-05-29T18:31:12.182Z,10.70
2018-05-29T18:35:14.684Z,17.33
2018-05-29T18:39:17.226Z,20.02
2018-05-29T18:43:19.772Z,76.78
2018-05-29T18:47:22.316Z,23.20
2018-05-29T18:51:25.603Z,19.37
2018-05-29T18:55:28.920Z,13.83
2018-05-29T18:59:32.219Z,17.43
2018-05-29T19:03:35.571Z,14.40
2018-05-29T19:07:38.079Z,13.33
2018-05-29T19:11:40.617Z,10.93
2018-05-29T19:15:43.143Z,20.37
2018-05-29T19:19:45.687Z,17.47
2018-05-29T19:23:48.220Z,13.63
2018-05-29T19:27:54.734Z,14.80
2018-05-29T19:31:57.287Z,11.17
2018-05-29T19:35:59.827Z,10.93
2018-05-29T19:40:02.383Z,8.07
2018-05-29T19:44:05.691Z,12.93
2018-05-29T19:48:08.230Z,9.93
2018-05-29T19:52:10.767Z,8.63
2018-05-29T19:56:13.293Z,11.83
2018-05-29T20:00:15.853Z,13.67
2018-05-29T20:04:18.403Z,11.77
2018-05-29T20:08:21.707Z,12.67
2018-05-29T20:12:25.020Z,11.77
2018-05-29T20:16:27.540Z,11.30
2018-05-29T20:20:30.088Z,13.63
2018-05-29T20:24:33.387Z,11.93
2018-05-29T20:28:36.690Z,11.57
2018-05-29T20:32:39.992Z,10.37
2018-05-29T20:36:43.329Z,12.77
2018-05-29T20:40:45.871Z,10.03
2018-05-29T20:44:49.167Z,14.53
2018-05-29T20:48:51.703Z,9.87
2018-05-29T20:52:54.257Z,11.70
2018-05-29T20:56:57.555Z,11.33
2018-05-29T21:01:00.915Z,12.27
2018-05-29T21:05:03.419Z,10.20
2018-05-29T21:09:05.955Z,10.20
2018-05-29T21:13:08.509Z,11.40
2018-05-29T21:17:11.795Z,18.30
2018-05-29T21:21:15.109Z,13.97
2018-05-29T21:25:17.686Z,23.47
2018-05-29T21:29:20.223Z,19.00
2018-05-29T21:33:22.765Z,26.10
2018-05-29T21:37:26.049Z,22.00
2018-05-29T21:41:28.626Z,19.77
2018-05-29T21:45:31.299Z,17.53
2018-05-29T21:49:33.833Z,21.37
2018-05-29T21:53:36.412Z,20.30
2018-05-29T21:57:38.915Z,16.43
2018-05-29T22:01:42.211Z,19.97
2018-05-29T22:05:45.517Z,19.00
2018-05-29T22:09:48.814Z,14.07
2018-05-29T22:13:52.156Z,12.00
2018-05-29T22:17:54.700Z,11.97
2018-05-29T22:21:58.009Z,13.37
2018-05-29T22:26:00.560Z,10.53
2018-05-29T22:30:03.096Z,10.10
2018-05-29T22:34:05.733Z,12.00
2018-05-29T22:38:08.243Z,12.23
2018-05-29T22:42:11.548Z,16.37
2018-05-29T22:46:14.851Z,12.00
2018-05-29T22:50:18.159Z,17.50
2018-05-29T22:54:21.464Z,13.83
2018-05-29T22:58:24.750Z,14.07
2018-05-29T23:02:27.291Z,16.33
2018-05-29T23:06:29.822Z,23.30
2018-05-29T23:10:33.143Z,15.87
2018-05-29T23:14:35.716Z,14.60
2018-05-29T23:18:39.002Z,14.23
2018-05-29T23:22:41.622Z,15.60
2018-05-29T23:26:44.164Z,14.73
2018-05-29T23:30:46.707Z,14.83
2018-05-29T23:34:49.248Z,15.03
2018-05-29T23:38:51.767Z,15.77
2018-05-29T23:42:54.303Z,21.97
2018-05-29T23:46:56.848Z,22.60
2018-05-29T23:50:59.391Z,17.03
2018-05-29T23:55:02.699Z,15.20
2018-05-29T23:59:05.991Z,17.20
